Chalvilles, Anguilla

4:19 AM AST on January 24, 2017 (GMT -0400)
The Valley | | Change Station

Elev 92 ft 18.21 °N, 63.05 °W | Updated 1 second ago

Partly Cloudy
Partly Cloudy
76.7 °F
Feels Like 78 °F
N
0.0
Wind Variable Wind from North

Today
High -- | Low -- °F
--% Chance of Precip.
Yesterday
High -- | Low -- °F
Precip. -- in
Pressure 29.95 in
Visibility 6.2 miles
Clouds Scattered Clouds 1700 ft
Heat Index 78 °F
Dew Point 70 °F
Humidity 80%
Rainfall 0.09 in
Snow Depth Not available.
6:46 AM 6:01 PM
Waning Crescent, 13% visible
METAR TNCM 240800Z 18003KT 9999 SCT017 26/23 Q1014 A2994
Pressure 29.95 in
Visibility 6.2 miles
Clouds Scattered Clouds 1700 ft
Heat Index 78 °F
Dew Point 70 °F
Humidity 80%
Rainfall 0.09 in
Snow Depth Not available.
6:46 AM 6:01 PM
Waning Crescent, 13% visible
METAR TNCM 240800Z 18003KT 9999 SCT017 26/23 Q1014 A2994

Get Your Daily Forecast Email!

Thanks for signing up!

Be on the lookout for a verification email in your inbox.

You'll start receiving the daily forecast at 8 AM.

×

10-Day Weather Forecast

No radar image for this location.
×

Almanac

Astronomy

Jan. 24, 2017 Rise Set
Actual Time
Civil Twilight
Nautical Twilight
Astronomical Twilight
Moon
Length of Visible Light
Length of Day
Tomorrow will be .
, % of the Moon is Illuminated

Today's Extremes

Country Highs Country Lows

Community

WunderPhotos

Upload Photos

1,962,540 photos uploaded!

WunderBlog® & News

Nearby

Air Quality

  Air Quality AQ Index Pollutant
Not available.

Snow Depth

Station Depth Elevation

Earthquake Activity

City Distance Mag. Time & Date
Minimum magnitude displayed is 2.5.

Coastal Water Temperatures

Place Temperature

Stations

Nearby Weather Stations

Station Location Temp. Windchill Dew Point Humidity Wind Precip. Elev Updated Type